PDA6124 UKWW-LMML
Flight info
| Callsign | PDA6124 |
|---|---|
| Flight time | N/A |
| Altitude | 36000 |
| Route | TAKET DCT AKLEF/N0430F360 DCT TIDGA DCT DIRER DCT YUYUH DCT BEVIS/N0441F370 DCT SIRGI DCT RCA DCT OLLEK |
| Aircraft | A320/M-VD/A |
Departure
| Time | 2026-04-23 06:39 |
|---|---|
| Airport | Vinnytsia/Gavyryshivka International Airport (UKWW) |
Arrival
| Time | N/A |
|---|---|
| Airport | Malta International Airport (LMML) |
| Time | Latitude | Longitude | Altitude | Speed | Heading |
|---|---|---|---|---|---|
| 2026-04-23 06:24 | 49.24370 | 28.60652 | 975 ft | 0 kts | 229° |
| 2026-04-23 06:34 | 49.24367 | 28.60648 | 985 ft | 2 kts | 225° |
| 2026-04-23 06:34 | 49.24341 | 28.60640 | 971 ft | 6 kts | 169° |
| 2026-04-23 06:34 | 49.24300 | 28.60693 | 976 ft | 9 kts | 108° |
| 2026-04-23 06:35 | 49.24340 | 28.60790 | 977 ft | 13 kts | 50° |
| 2026-04-23 06:35 | 49.24402 | 28.60896 | 976 ft | 15 kts | 45° |
| 2026-04-23 06:35 | 49.24473 | 28.61044 | 975 ft | 19 kts | 82° |
| 2026-04-23 06:35 | 49.24385 | 28.61201 | 978 ft | 22 kts | 140° |
| 2026-04-23 06:36 | 49.24263 | 28.61366 | 979 ft | 26 kts | 139° |
| 2026-04-23 06:36 | 49.24119 | 28.61564 | 975 ft | 30 kts | 138° |
| 2026-04-23 06:36 | 49.23957 | 28.61786 | 969 ft | 32 kts | 137° |
| 2026-04-23 06:36 | 49.23789 | 28.62016 | 978 ft | 29 kts | 138° |
| 2026-04-23 06:37 | 49.23636 | 28.62224 | 975 ft | 30 kts | 138° |
| 2026-04-23 06:37 | 49.23487 | 28.62409 | 967 ft | 20 kts | 145° |
| 2026-04-23 06:37 | 49.23453 | 28.62463 | 968 ft | 1 kts | 47° |
| 2026-04-23 06:37 | 49.23457 | 28.62459 | 968 ft | 0 kts | 353° |
| 2026-04-23 06:38 | 49.23457 | 28.62458 | 968 ft | 0 kts | 342° |
| 2026-04-23 06:38 | 49.23461 | 28.62453 | 963 ft | 2 kts | 326° |
| 2026-04-23 06:38 | 49.23543 | 28.62347 | 976 ft | 44 kts | 318° |
| 2026-04-23 06:39 | 49.24111 | 28.61569 | 980 ft | 117 kts | 318° |
| 2026-04-23 06:39 | 49.24798 | 28.60607 | 1163 ft | 140 kts | 315° |
| 2026-04-23 06:39 | 49.25291 | 28.59950 | 1608 ft | 138 kts | 315° |
| 2026-04-23 06:39 | 49.26030 | 28.59024 | 2301 ft | 135 kts | 317° |
| 2026-04-23 06:40 | 49.26822 | 28.58265 | 2834 ft | 143 kts | 332° |
| 2026-04-23 06:40 | 49.27926 | 28.57856 | 3193 ft | 183 kts | 351° |
| 2026-04-23 06:40 | 49.29254 | 28.58150 | 3995 ft | 214 kts | 13° |
| 2026-04-23 06:40 | 49.30560 | 28.59608 | 4653 ft | 258 kts | 45° |
| 2026-04-23 06:41 | 49.31271 | 28.62336 | 5406 ft | 297 kts | 79° |
| 2026-04-23 06:41 | 49.30990 | 28.65569 | 6294 ft | 317 kts | 111° |
| 2026-04-23 06:41 | 49.29714 | 28.68329 | 7277 ft | 321 kts | 142° |
| 2026-04-23 06:41 | 49.27772 | 28.69881 | 8332 ft | 314 kts | 174° |
| 2026-04-23 06:42 | 49.25654 | 28.69898 | 9461 ft | 299 kts | 200° |
| 2026-04-23 06:42 | 49.23686 | 28.68972 | 10483 ft | 297 kts | 207° |
| 2026-04-23 06:42 | 49.21819 | 28.67671 | 11412 ft | 291 kts | 226° |
| 2026-04-23 06:42 | 49.20517 | 28.65403 | 12342 ft | 282 kts | 246° |
| 2026-04-23 06:43 | 49.19677 | 28.62728 | 13339 ft | 280 kts | 255° |
| 2026-04-23 06:43 | 49.18909 | 28.59949 | 14230 ft | 287 kts | 254° |
| 2026-04-23 06:43 | 49.18084 | 28.57112 | 15007 ft | 296 kts | 254° |
| 2026-04-23 06:43 | 49.17226 | 28.54198 | 15829 ft | 303 kts | 255° |
| 2026-04-23 06:44 | 49.16356 | 28.51229 | 16665 ft | 309 kts | 255° |
| 2026-04-23 06:44 | 49.15483 | 28.48227 | 17479 ft | 315 kts | 256° |
| 2026-04-23 06:44 | 49.14588 | 28.45116 | 18225 ft | 323 kts | 256° |
| 2026-04-23 06:44 | 49.13679 | 28.41937 | 18909 ft | 330 kts | 256° |
| 2026-04-23 06:45 | 49.12758 | 28.38703 | 19609 ft | 335 kts | 256° |
| 2026-04-23 06:45 | 49.11817 | 28.35398 | 20302 ft | 341 kts | 256° |
| 2026-04-23 06:45 | 49.10860 | 28.32048 | 20993 ft | 347 kts | 256° |
| 2026-04-23 06:45 | 49.09881 | 28.28633 | 21678 ft | 352 kts | 256° |
| 2026-04-23 06:46 | 49.08889 | 28.25185 | 22369 ft | 358 kts | 256° |
| 2026-04-23 06:46 | 49.07879 | 28.21676 | 23042 ft | 363 kts | 256° |
| 2026-04-23 06:46 | 49.06854 | 28.18118 | 23634 ft | 369 kts | 256° |
| 2026-04-23 06:46 | 49.05813 | 28.14513 | 24183 ft | 373 kts | 256° |
| 2026-04-23 06:47 | 49.04761 | 28.10882 | 24719 ft | 377 kts | 256° |
| 2026-04-23 06:47 | 49.03698 | 28.07203 | 25218 ft | 380 kts | 256° |
| 2026-04-23 06:47 | 49.02628 | 28.03496 | 25711 ft | 383 kts | 256° |
| 2026-04-23 06:47 | 49.01545 | 27.99762 | 26098 ft | 387 kts | 256° |
| 2026-04-23 06:48 | 49.00467 | 27.96041 | 26508 ft | 391 kts | 256° |
| 2026-04-23 06:48 | 48.99360 | 27.92223 | 26930 ft | 394 kts | 256° |
| 2026-04-23 06:48 | 48.98242 | 27.88401 | 27324 ft | 397 kts | 256° |
| 2026-04-23 06:48 | 48.97089 | 27.84558 | 27666 ft | 403 kts | 253° |
| 2026-04-23 06:49 | 48.95755 | 27.80754 | 28021 ft | 410 kts | 249° |
| 2026-04-23 06:49 | 48.94268 | 27.77023 | 28385 ft | 415 kts | 246° |
| 2026-04-23 06:49 | 48.92685 | 27.73331 | 28737 ft | 419 kts | 245° |
| 2026-04-23 06:49 | 48.91053 | 27.69629 | 29096 ft | 422 kts | 245° |
| 2026-04-23 06:50 | 48.89414 | 27.65911 | 29444 ft | 424 kts | 245° |
| 2026-04-23 06:50 | 48.87786 | 27.62159 | 29774 ft | 426 kts | 245° |
| 2026-04-23 06:50 | 48.86186 | 27.58411 | 30050 ft | 429 kts | 245° |
| 2026-04-23 06:50 | 48.84575 | 27.54590 | 30339 ft | 431 kts | 246° |
| 2026-04-23 06:51 | 48.82961 | 27.50737 | 30635 ft | 433 kts | 246° |
| 2026-04-23 06:51 | 48.81340 | 27.46861 | 30951 ft | 436 kts | 246° |
| 2026-04-23 06:51 | 48.79707 | 27.42965 | 31255 ft | 438 kts | 245° |
| 2026-04-23 06:51 | 48.78057 | 27.39061 | 31553 ft | 441 kts | 245° |
| 2026-04-23 06:52 | 48.76394 | 27.35148 | 31846 ft | 443 kts | 245° |
| 2026-04-23 06:52 | 48.74716 | 27.31219 | 32190 ft | 444 kts | 245° |
| 2026-04-23 06:52 | 48.73031 | 27.27273 | 32356 ft | 448 kts | 245° |
| 2026-04-23 06:52 | 48.71339 | 27.23305 | 32487 ft | 454 kts | 244° |
| 2026-04-23 06:53 | 48.69613 | 27.19248 | 32636 ft | 459 kts | 244° |
| 2026-04-23 06:53 | 48.67869 | 27.15154 | 32775 ft | 466 kts | 244° |
| 2026-04-23 06:53 | 48.66095 | 27.11007 | 32913 ft | 472 kts | 244° |
| 2026-04-23 06:53 | 48.64294 | 27.06808 | 33073 ft | 477 kts | 244° |
| 2026-04-23 06:54 | 48.62481 | 27.02601 | 33373 ft | 479 kts | 244° |
| 2026-04-23 06:54 | 48.60655 | 26.98367 | 33742 ft | 479 kts | 244° |
| 2026-04-23 06:54 | 48.58833 | 26.94146 | 34075 ft | 478 kts | 243° |
| 2026-04-23 06:54 | 48.57019 | 26.89945 | 34394 ft | 478 kts | 243° |
| 2026-04-23 06:55 | 48.55204 | 26.85740 | 34659 ft | 478 kts | 243° |
| 2026-04-23 06:55 | 48.53383 | 26.81524 | 34969 ft | 478 kts | 242° |
| 2026-04-23 06:55 | 48.51587 | 26.77377 | 35282 ft | 477 kts | 242° |
| 2026-04-23 06:55 | 48.49743 | 26.73132 | 35605 ft | 476 kts | 242° |
| 2026-04-23 06:56 | 48.47944 | 26.69002 | 35817 ft | 476 kts | 241° |
| 2026-04-23 06:56 | 48.46123 | 26.64821 | 35858 ft | 477 kts | 241° |
| 2026-04-23 06:56 | 48.42474 | 26.56448 | 35846 ft | 477 kts | 241° |
| 2026-04-23 06:57 | 48.38837 | 26.48141 | 35865 ft | 478 kts | 241° |
| 2026-04-23 06:57 | 48.35167 | 26.39790 | 35866 ft | 478 kts | 241° |
| 2026-04-23 06:58 | 48.31496 | 26.31463 | 35868 ft | 478 kts | 241° |
| 2026-04-23 06:58 | 48.27818 | 26.23128 | 35882 ft | 478 kts | 241° |
| 2026-04-23 06:59 | 48.24128 | 26.14800 | 35878 ft | 479 kts | 240° |
| 2026-04-23 06:59 | 48.20425 | 26.06482 | 35888 ft | 479 kts | 240° |
| 2026-04-23 07:00 | 48.16714 | 25.98175 | 35891 ft | 480 kts | 240° |
| 2026-04-23 07:00 | 48.12995 | 25.89858 | 35906 ft | 480 kts | 240° |
| 2026-04-23 07:01 | 48.09277 | 25.81563 | 35913 ft | 480 kts | 240° |
| 2026-04-23 07:01 | 48.05550 | 25.73272 | 35911 ft | 480 kts | 240° |
| 2026-04-23 07:02 | 48.01843 | 25.65064 | 35913 ft | 480 kts | 240° |
| 2026-04-23 07:02 | 47.98100 | 25.56802 | 35918 ft | 480 kts | 240° |
| 2026-04-23 07:03 | 47.94359 | 25.48563 | 35920 ft | 480 kts | 239° |
| 2026-04-23 07:03 | 47.90149 | 25.40800 | 35927 ft | 484 kts | 230° |
| 2026-04-23 07:04 | 47.85586 | 25.33403 | 35934 ft | 484 kts | 230° |
| 2026-04-23 07:04 | 47.81026 | 25.25991 | 35948 ft | 484 kts | 230° |
| 2026-04-23 07:05 | 47.76457 | 25.18603 | 35953 ft | 485 kts | 230° |
| 2026-04-23 07:05 | 47.71917 | 25.11288 | 35969 ft | 484 kts | 230° |
| 2026-04-23 07:06 | 47.67339 | 25.03941 | 35989 ft | 484 kts | 230° |
| 2026-04-23 07:06 | 47.62760 | 24.96610 | 35998 ft | 484 kts | 229° |
| 2026-04-23 07:07 | 47.58181 | 24.89294 | 35999 ft | 484 kts | 229° |
| 2026-04-23 07:07 | 47.53600 | 24.81995 | 36016 ft | 484 kts | 229° |
| 2026-04-23 07:08 | 47.49013 | 24.74711 | 36037 ft | 483 kts | 229° |
| 2026-04-23 07:08 | 47.44452 | 24.67487 | 36035 ft | 484 kts | 229° |
| 2026-04-23 07:09 | 47.39851 | 24.60215 | 36053 ft | 484 kts | 229° |
| 2026-04-23 07:09 | 47.35248 | 24.52947 | 36061 ft | 485 kts | 229° |
| 2026-04-23 07:10 | 47.30627 | 24.45684 | 36061 ft | 484 kts | 229° |
| 2026-04-23 07:10 | 47.26005 | 24.38446 | 36069 ft | 485 kts | 228° |
| 2026-04-23 07:11 | 47.21384 | 24.31223 | 36077 ft | 485 kts | 228° |
| 2026-04-23 07:12 | 47.14432 | 24.20410 | 36086 ft | 485 kts | 228° |
| 2026-04-23 07:12 | 47.09813 | 24.13238 | 36063 ft | 486 kts | 227° |
| 2026-04-23 07:13 | 47.05168 | 24.06042 | 36075 ft | 485 kts | 227° |
| 2026-04-23 07:13 | 47.00521 | 23.98866 | 36074 ft | 485 kts | 227° |
| 2026-04-23 07:14 | 46.95865 | 23.91705 | 36082 ft | 485 kts | 227° |
| 2026-04-23 07:14 | 46.91205 | 23.84556 | 36074 ft | 485 kts | 227° |
| 2026-04-23 07:15 | 46.86544 | 23.77415 | 36063 ft | 485 kts | 227° |
| 2026-04-23 07:15 | 46.81866 | 23.70275 | 36072 ft | 485 kts | 227° |
| 2026-04-23 07:16 | 46.77194 | 23.63155 | 36068 ft | 485 kts | 226° |
| 2026-04-23 07:16 | 46.72549 | 23.56091 | 36067 ft | 485 kts | 226° |
| 2026-04-23 07:17 | 46.67866 | 23.49003 | 36068 ft | 486 kts | 226° |
| 2026-04-23 07:17 | 46.63172 | 23.41923 | 36089 ft | 486 kts | 226° |
| 2026-04-23 07:18 | 46.58476 | 23.34838 | 36087 ft | 486 kts | 226° |
| 2026-04-23 07:18 | 46.53777 | 23.27768 | 36086 ft | 487 kts | 226° |
| 2026-04-23 07:19 | 46.49062 | 23.20701 | 36097 ft | 487 kts | 226° |
| 2026-04-23 07:19 | 46.44351 | 23.13652 | 36096 ft | 487 kts | 226° |
| 2026-04-23 07:20 | 46.39618 | 23.06641 | 36080 ft | 486 kts | 223° |
| 2026-04-23 07:20 | 46.34500 | 23.00347 | 36107 ft | 486 kts | 219° |
| 2026-04-23 07:21 | 46.29322 | 22.94071 | 36110 ft | 486 kts | 219° |
| 2026-04-23 07:21 | 46.24144 | 22.87806 | 36113 ft | 485 kts | 219° |
| 2026-04-23 07:22 | 46.19806 | 22.82567 | 36116 ft | 485 kts | 219° |
| 2026-04-23 07:22 | 46.14624 | 22.76320 | 36124 ft | 485 kts | 219° |
| 2026-04-23 07:23 | 46.09437 | 22.70092 | 36122 ft | 485 kts | 219° |
| 2026-04-23 07:23 | 46.04242 | 22.63876 | 36127 ft | 486 kts | 219° |
| 2026-04-23 07:24 | 45.99065 | 22.57711 | 36126 ft | 486 kts | 219° |
| 2026-04-23 07:24 | 45.93855 | 22.51511 | 36127 ft | 486 kts | 219° |
| 2026-04-23 07:25 | 45.88643 | 22.45309 | 36126 ft | 487 kts | 219° |
| 2026-04-23 07:25 | 45.83419 | 22.39112 | 36123 ft | 487 kts | 219° |
| 2026-04-23 07:26 | 45.78187 | 22.32918 | 36144 ft | 488 kts | 218° |
| 2026-04-23 07:26 | 45.72946 | 22.26741 | 36135 ft | 488 kts | 218° |
| 2026-04-23 07:27 | 45.67736 | 22.20611 | 36145 ft | 488 kts | 218° |
| 2026-04-23 07:27 | 45.62458 | 22.14413 | 36133 ft | 488 kts | 218° |
| 2026-04-23 07:28 | 45.57243 | 22.08321 | 36153 ft | 488 kts | 218° |
| 2026-04-23 07:28 | 45.51979 | 22.02187 | 36152 ft | 488 kts | 218° |
| 2026-04-23 07:29 | 45.46727 | 21.96063 | 36152 ft | 487 kts | 218° |
| 2026-04-23 07:29 | 45.41477 | 21.89954 | 36162 ft | 487 kts | 218° |
| 2026-04-23 07:30 | 45.36225 | 21.83873 | 36165 ft | 487 kts | 217° |
| 2026-04-23 07:30 | 45.30968 | 21.77806 | 36161 ft | 486 kts | 217° |
| 2026-04-23 07:31 | 45.25748 | 21.71788 | 36172 ft | 486 kts | 217° |
| 2026-04-23 07:31 | 45.20493 | 21.65747 | 36166 ft | 486 kts | 217° |
| 2026-04-23 07:32 | 45.15243 | 21.59723 | 36165 ft | 486 kts | 217° |
| 2026-04-23 07:32 | 45.09982 | 21.53700 | 36182 ft | 486 kts | 217° |
| 2026-04-23 07:33 | 45.04728 | 21.47694 | 36181 ft | 485 kts | 217° |
| 2026-04-23 07:33 | 44.99478 | 21.41704 | 36178 ft | 485 kts | 217° |
| 2026-04-23 07:34 | 44.94151 | 21.35879 | 36181 ft | 484 kts | 214° |
| 2026-04-23 07:34 | 44.88719 | 21.30271 | 36187 ft | 483 kts | 213° |
| 2026-04-23 07:35 | 44.83292 | 21.24700 | 36184 ft | 482 kts | 214° |
| 2026-04-23 07:35 | 44.77894 | 21.19070 | 36182 ft | 482 kts | 214° |
| 2026-04-23 07:36 | 44.72537 | 21.13473 | 36175 ft | 481 kts | 214° |
| 2026-04-23 07:36 | 44.67152 | 21.07873 | 36175 ft | 481 kts | 214° |
| 2026-04-23 07:37 | 44.61764 | 21.02295 | 36170 ft | 481 kts | 214° |
| 2026-04-23 07:37 | 44.56371 | 20.96733 | 36187 ft | 481 kts | 214° |
| 2026-04-23 07:38 | 44.50986 | 20.91181 | 36188 ft | 480 kts | 214° |
| 2026-04-23 07:38 | 44.45603 | 20.85630 | 36187 ft | 480 kts | 214° |
| 2026-04-23 07:39 | 44.40219 | 20.80096 | 36188 ft | 480 kts | 214° |
| 2026-04-23 07:39 | 44.34830 | 20.74582 | 36184 ft | 480 kts | 214° |
| 2026-04-23 07:40 | 44.29474 | 20.69117 | 36188 ft | 480 kts | 214° |
| 2026-04-23 07:40 | 44.24077 | 20.63622 | 36198 ft | 480 kts | 214° |
| 2026-04-23 07:41 | 44.18689 | 20.58141 | 36194 ft | 480 kts | 214° |
| 2026-04-23 07:41 | 44.13256 | 20.52629 | 36200 ft | 480 kts | 213° |
| 2026-04-23 07:42 | 44.07892 | 20.47204 | 36209 ft | 479 kts | 214° |
| 2026-04-23 07:42 | 44.02497 | 20.41751 | 36206 ft | 479 kts | 214° |
| 2026-04-23 07:43 | 43.97105 | 20.36309 | 36209 ft | 479 kts | 214° |
| 2026-04-23 07:43 | 43.91706 | 20.30881 | 36214 ft | 478 kts | 214° |
| 2026-04-23 07:44 | 43.86311 | 20.25477 | 36208 ft | 477 kts | 214° |
| 2026-04-23 07:44 | 43.80929 | 20.20102 | 36192 ft | 477 kts | 214° |
| 2026-04-23 07:45 | 43.75536 | 20.14717 | 36196 ft | 477 kts | 214° |
| 2026-04-23 07:45 | 43.70156 | 20.09353 | 36201 ft | 476 kts | 214° |
| 2026-04-23 07:46 | 43.64819 | 20.04050 | 36209 ft | 475 kts | 214° |
| 2026-04-23 07:46 | 43.59440 | 19.98721 | 36219 ft | 475 kts | 214° |
| 2026-04-23 07:47 | 43.54080 | 19.93411 | 36211 ft | 473 kts | 214° |
| 2026-04-23 07:47 | 43.48731 | 19.88121 | 36210 ft | 472 kts | 214° |
| 2026-04-23 07:48 | 43.43423 | 19.82891 | 36212 ft | 471 kts | 214° |
| 2026-04-23 07:48 | 43.38094 | 19.77651 | 36216 ft | 470 kts | 215° |
| 2026-04-23 07:49 | 43.32771 | 19.72430 | 36218 ft | 469 kts | 214° |
| 2026-04-23 07:49 | 43.27452 | 19.67237 | 36218 ft | 469 kts | 214° |
| 2026-04-23 07:50 | 43.22156 | 19.61993 | 36212 ft | 468 kts | 217° |
| 2026-04-23 07:50 | 43.17114 | 19.56344 | 36217 ft | 468 kts | 220° |
| 2026-04-23 07:51 | 43.12183 | 19.50532 | 36212 ft | 468 kts | 220° |
| 2026-04-23 07:51 | 43.07211 | 19.44796 | 36188 ft | 467 kts | 219° |
| 2026-04-23 07:52 | 43.02216 | 19.39181 | 36187 ft | 467 kts | 219° |
| 2026-04-23 07:52 | 42.97173 | 19.33560 | 36184 ft | 467 kts | 219° |
| 2026-04-23 07:53 | 42.92139 | 19.27924 | 36175 ft | 468 kts | 219° |
| 2026-04-23 07:53 | 42.87103 | 19.22277 | 36171 ft | 468 kts | 219° |
| 2026-04-23 07:54 | 42.82066 | 19.16658 | 36151 ft | 468 kts | 219° |
| 2026-04-23 07:54 | 42.77018 | 19.11035 | 36153 ft | 468 kts | 219° |
| 2026-04-23 07:55 | 42.72016 | 19.05467 | 36163 ft | 467 kts | 219° |
| 2026-04-23 07:55 | 42.66984 | 18.99877 | 36147 ft | 466 kts | 219° |
| 2026-04-23 07:56 | 42.61948 | 18.94305 | 36161 ft | 466 kts | 220° |
| 2026-04-23 07:56 | 42.56921 | 18.88749 | 36161 ft | 465 kts | 220° |
| 2026-04-23 07:57 | 42.51912 | 18.83223 | 36151 ft | 463 kts | 220° |
| 2026-04-23 07:57 | 42.46932 | 18.77746 | 36135 ft | 463 kts | 220° |
| 2026-04-23 07:58 | 42.41927 | 18.72264 | 36158 ft | 462 kts | 220° |
| 2026-04-23 07:58 | 42.36926 | 18.66798 | 36158 ft | 461 kts | 220° |
| 2026-04-23 07:59 | 42.31945 | 18.61346 | 36149 ft | 460 kts | 220° |
| 2026-04-23 07:59 | 42.26973 | 18.55908 | 36160 ft | 459 kts | 220° |
| 2026-04-23 08:00 | 42.22032 | 18.50526 | 36146 ft | 458 kts | 220° |
| 2026-04-23 08:00 | 42.17035 | 18.45099 | 36156 ft | 458 kts | 220° |
| 2026-04-23 08:01 | 42.12103 | 18.39756 | 36137 ft | 458 kts | 221° |
| 2026-04-23 08:01 | 42.07138 | 18.34379 | 36153 ft | 457 kts | 221° |
| 2026-04-23 08:02 | 42.02179 | 18.29021 | 36152 ft | 457 kts | 221° |
| 2026-04-23 08:02 | 41.97224 | 18.23685 | 36153 ft | 456 kts | 221° |
| 2026-04-23 08:03 | 41.92183 | 18.18498 | 36155 ft | 457 kts | 214° |
| 2026-04-23 08:03 | 41.86810 | 18.13932 | 36160 ft | 457 kts | 214° |
| 2026-04-23 08:04 | 41.81479 | 18.09387 | 36156 ft | 456 kts | 215° |
| 2026-04-23 08:04 | 41.76115 | 18.04814 | 36154 ft | 456 kts | 215° |
| 2026-04-23 08:05 | 41.70765 | 18.00271 | 36157 ft | 455 kts | 215° |
| 2026-04-23 08:05 | 41.65411 | 17.95741 | 36156 ft | 454 kts | 215° |
| 2026-04-23 08:06 | 41.60072 | 17.91233 | 36150 ft | 454 kts | 216° |
| 2026-04-23 08:06 | 41.54761 | 17.86759 | 36159 ft | 453 kts | 216° |
| 2026-04-23 08:07 | 41.49425 | 17.82266 | 36154 ft | 453 kts | 216° |
| 2026-04-23 08:07 | 41.44994 | 17.78540 | 36153 ft | 453 kts | 216° |
| 2026-04-23 08:08 | 41.39668 | 17.74057 | 36141 ft | 452 kts | 216° |
| 2026-04-23 08:08 | 41.34328 | 17.69596 | 36146 ft | 453 kts | 215° |
| 2026-04-23 08:09 | 41.28991 | 17.65153 | 36147 ft | 453 kts | 215° |
| 2026-04-23 08:09 | 41.23656 | 17.60698 | 36140 ft | 453 kts | 216° |
| 2026-04-23 08:10 | 41.18323 | 17.56248 | 36152 ft | 452 kts | 216° |
| 2026-04-23 08:10 | 41.10362 | 17.49644 | 36157 ft | 452 kts | 216° |
| 2026-04-23 08:11 | 41.05027 | 17.45236 | 36141 ft | 451 kts | 216° |
| 2026-04-23 08:11 | 40.99700 | 17.40834 | 36154 ft | 450 kts | 216° |
| 2026-04-23 08:12 | 40.94391 | 17.36447 | 36142 ft | 450 kts | 216° |
| 2026-04-23 08:12 | 40.89075 | 17.32064 | 36143 ft | 450 kts | 216° |
| 2026-04-23 08:13 | 40.83756 | 17.27688 | 36139 ft | 449 kts | 217° |
| 2026-04-23 08:13 | 40.78443 | 17.23334 | 36147 ft | 449 kts | 216° |
| 2026-04-23 08:14 | 40.73175 | 17.19024 | 36158 ft | 448 kts | 216° |
| 2026-04-23 08:14 | 40.67874 | 17.14692 | 36147 ft | 448 kts | 217° |
| 2026-04-23 08:15 | 40.62589 | 17.10372 | 36159 ft | 446 kts | 217° |
| 2026-04-23 08:15 | 40.57309 | 17.06072 | 36161 ft | 446 kts | 217° |
| 2026-04-23 08:16 | 40.52039 | 17.01792 | 36149 ft | 445 kts | 217° |
| 2026-04-23 08:16 | 40.46776 | 16.97522 | 36147 ft | 444 kts | 217° |